createdAt,value
2023-05-23T00:01:58.674Z,98763.78
2023-05-23T00:04:31.628Z,98753.66
2023-05-23T00:07:04.786Z,98750.34
2023-05-23T00:22:13.442Z,98752.72
2023-05-23T00:24:46.309Z,98760.81
2023-05-23T00:27:19.171Z,98766.16
2023-05-23T00:29:52.004Z,98770.63
2023-05-23T00:32:24.862Z,98771.41
2023-05-23T00:34:58.178Z,98768.47
2023-05-23T00:37:32.458Z,98771.72
2023-05-23T00:40:06.103Z,98772.84
2023-05-23T00:42:38.969Z,98775.19
2023-05-23T00:45:13.364Z,98776.66
2023-05-23T00:47:48.262Z,98778.69
2023-05-23T00:50:22.165Z,98769.06
2023-05-23T00:52:57.595Z,98778.03
2023-05-23T00:55:31.442Z,98789.50
2023-05-23T00:58:04.269Z,98787.03
2023-05-23T01:00:38.610Z,98793.53
2023-05-23T01:03:17.746Z,98783.31
2023-05-23T01:05:50.750Z,98786.38
2023-05-23T01:08:25.272Z,98790.38
2023-05-23T01:11:07.367Z,98787.06
2023-05-23T01:13:44.249Z,98796.41
2023-05-23T01:16:22.127Z,98786.78
2023-05-23T01:19:02.231Z,98783.94
2023-05-23T01:21:36.030Z,98786.16
2023-05-23T01:24:37.843Z,98787.50
2023-05-23T01:27:24.630Z,98794.72
2023-05-23T01:30:02.975Z,98783.03
2023-05-23T01:32:36.900Z,98782.66
2023-05-23T01:35:11.770Z,98784.91
2023-05-23T01:37:46.563Z,98793.38
2023-05-23T01:40:19.457Z,98791.84
2023-05-23T01:42:53.023Z,98797.94
2023-05-23T01:45:30.649Z,98806.94
2023-05-23T01:48:04.897Z,98798.31
2023-05-23T01:50:37.748Z,98808.56
2023-05-23T01:53:11.263Z,98810.59
2023-05-23T01:55:44.977Z,98816.59
2023-05-23T01:58:18.136Z,98813.69
2023-05-23T02:00:53.533Z,98805.94
2023-05-23T02:03:26.629Z,98811.31
2023-05-23T02:06:00.118Z,98810.53
2023-05-23T02:08:33.579Z,98808.94
2023-05-23T02:11:08.845Z,98814.03
2023-05-23T02:13:41.632Z,98813.69
2023-05-23T02:16:15.988Z,98814.22
2023-05-23T02:18:49.233Z,98816.53
2023-05-23T02:21:22.226Z,98817.50
2023-05-23T02:23:55.151Z,98817.66
2023-05-23T02:26:27.953Z,98814.59
2023-05-23T02:29:00.875Z,98818.38
2023-05-23T02:31:35.540Z,98831.84
2023-05-23T02:34:08.485Z,98830.38
2023-05-23T02:36:41.281Z,98825.53
2023-05-23T02:39:14.476Z,98832.56
2023-05-23T02:41:48.939Z,98843.78
2023-05-23T02:44:21.845Z,98833.81
2023-05-23T02:46:56.369Z,98833.97
2023-05-23T02:49:29.537Z,98834.25
2023-05-23T02:52:02.351Z,98840.13
2023-05-23T02:54:35.479Z,98838.34
2023-05-23T02:57:08.427Z,98838.09
2023-05-23T02:59:44.208Z,98837.75
2023-05-23T03:02:19.012Z,98839.19
2023-05-23T03:04:56.113Z,98829.66
2023-05-23T03:07:30.295Z,98828.25
2023-05-23T03:10:03.347Z,98826.16
2023-05-23T03:12:37.135Z,98831.91
2023-05-23T03:15:11.264Z,98831.50
2023-05-23T03:17:48.263Z,98829.00
2023-05-23T03:20:22.889Z,98828.91
2023-05-23T03:22:55.889Z,98829.63
2023-05-23T03:25:29.613Z,98833.44
2023-05-23T03:28:02.658Z,98834.09
2023-05-23T03:30:36.107Z,98834.09
2023-05-23T03:33:11.321Z,98835.97
2023-05-23T03:35:44.959Z,98838.34
2023-05-23T03:38:18.194Z,98848.63
2023-05-23T03:40:51.140Z,98853.03
2023-05-23T03:43:24.182Z,98854.91
2023-05-23T03:45:57.446Z,98861.78
2023-05-23T03:48:31.925Z,98865.50
2023-05-23T03:51:05.201Z,98872.88
2023-05-23T03:53:38.210Z,98872.91
2023-05-23T03:56:11.232Z,98875.72
2023-05-23T03:58:44.250Z,98880.88
2023-05-23T04:01:20.515Z,98875.22
2023-05-23T04:03:55.616Z,98885.59
2023-05-23T04:06:34.750Z,98884.34
2023-05-23T04:09:07.824Z,98884.34
2023-05-23T04:11:45.767Z,98883.56
2023-05-23T04:14:20.383Z,98885.59
2023-05-23T04:16:53.671Z,98890.41
2023-05-23T04:19:28.458Z,98891.66
2023-05-23T04:22:01.606Z,98896.66
2023-05-23T04:24:34.925Z,98891.00
2023-05-23T04:27:08.567Z,98897.59
2023-05-23T04:29:42.579Z,98895.53
2023-05-23T04:32:16.816Z,98895.13
2023-05-23T04:34:51.946Z,98894.13
2023-05-23T04:37:26.347Z,98897.88
2023-05-23T04:40:01.162Z,98899.88
2023-05-23T04:42:57.332Z,98896.09
2023-05-23T04:45:44.105Z,98897.00
2023-05-23T04:48:36.138Z,98879.72
2023-05-23T04:51:11.534Z,98889.03
2023-05-23T04:53:58.193Z,98890.53
2023-05-23T04:56:31.752Z,98888.06
2023-05-23T04:59:04.986Z,98896.03
2023-05-23T05:01:40.906Z,98895.28
2023-05-23T05:04:15.630Z,98903.47
2023-05-23T05:06:50.509Z,98900.28
2023-05-23T05:09:24.222Z,98898.13
2023-05-23T05:11:57.351Z,98906.06
2023-05-23T05:14:30.199Z,98896.78
2023-05-23T05:17:04.084Z,98917.00
2023-05-23T05:19:44.932Z,98905.25
2023-05-23T05:22:23.454Z,98908.22
2023-05-23T05:25:04.798Z,98909.78
2023-05-23T05:27:38.816Z,98915.56
2023-05-23T05:30:14.939Z,98914.78
2023-05-23T05:32:59.074Z,98919.88
2023-05-23T05:35:32.401Z,98926.78
2023-05-23T05:38:08.284Z,98927.56
2023-05-23T05:40:41.848Z,98925.91
2023-05-23T05:43:15.512Z,98931.75
2023-05-23T05:45:48.400Z,98937.41
2023-05-23T05:48:21.487Z,98941.88
2023-05-23T05:50:55.870Z,98954.53
2023-05-23T05:53:30.088Z,98960.84
2023-05-23T05:56:09.164Z,98964.47
2023-05-23T05:58:42.444Z,98965.63
2023-05-23T06:01:19.117Z,98963.75
2023-05-23T06:03:52.274Z,98969.00
2023-05-23T06:06:25.512Z,98971.66
2023-05-23T06:09:01.004Z,98971.47
2023-05-23T06:11:35.276Z,98968.34
2023-05-23T06:14:08.268Z,98975.72
2023-05-23T06:16:44.056Z,98974.50
2023-05-23T06:19:17.743Z,98970.50
2023-05-23T06:21:51.842Z,98976.97
2023-05-23T06:24:30.295Z,98981.50
2023-05-23T06:27:03.217Z,98977.91
2023-05-23T06:29:36.890Z,98980.09
2023-05-23T06:32:09.899Z,98982.34
2023-05-23T06:34:42.875Z,98974.81
2023-05-23T06:37:15.961Z,98982.22
2023-05-23T06:39:50.219Z,98975.59
2023-05-23T06:42:23.855Z,98985.31
2023-05-23T06:45:13.214Z,98988.31
2023-05-23T06:47:48.231Z,98996.66
2023-05-23T06:50:21.374Z,98996.03
2023-05-23T06:52:56.375Z,98995.88
2023-05-23T06:55:30.663Z,98989.84
2023-05-23T06:58:05.033Z,99006.06
2023-05-23T07:00:39.815Z,99004.44
2023-05-23T07:03:27.947Z,98997.31
2023-05-23T07:06:05.756Z,99013.78
2023-05-23T07:08:39.778Z,99013.31
2023-05-23T07:11:14.169Z,99022.38
2023-05-23T07:13:49.980Z,99014.66
2023-05-23T07:16:41.581Z,99026.31
2023-05-23T07:19:14.846Z,99020.63
2023-05-23T07:21:52.050Z,99025.69
2023-05-23T07:24:25.804Z,99028.50
2023-05-23T07:27:02.667Z,99026.81
2023-05-23T07:29:36.964Z,99029.00
2023-05-23T07:32:09.907Z,99040.91
2023-05-23T07:34:43.743Z,99035.25
2023-05-23T07:37:17.247Z,99028.34
2023-05-23T07:39:51.468Z,99033.22
2023-05-23T07:42:25.918Z,99036.81
2023-05-23T07:44:59.112Z,99047.22
2023-05-23T07:47:32.055Z,99045.09
2023-05-23T07:50:05.895Z,99054.94
2023-05-23T07:52:39.153Z,99061.50
2023-05-23T07:55:13.320Z,99053.69
2023-05-23T07:57:47.697Z,99053.13
2023-05-23T08:00:21.910Z,99054.72
2023-05-23T08:03:00.837Z,99051.81
2023-05-23T08:05:40.499Z,99063.19
2023-05-23T08:08:13.485Z,99062.53
2023-05-23T08:10:47.199Z,99067.16
2023-05-23T08:13:31.537Z,99063.13
2023-05-23T08:16:24.452Z,99063.72
2023-05-23T08:18:57.742Z,99071.81
2023-05-23T08:21:30.792Z,99077.47
2023-05-23T08:24:04.618Z,99076.41
2023-05-23T08:26:37.791Z,99071.94
2023-05-23T08:29:15.783Z,99076.50
2023-05-23T08:31:49.307Z,99074.56
2023-05-23T08:34:22.604Z,99074.00
2023-05-23T08:36:55.560Z,99079.41
2023-05-23T08:39:28.562Z,99084.63
2023-05-23T08:42:19.557Z,99086.94
2023-05-23T08:44:57.687Z,99085.28
2023-05-23T08:47:33.923Z,99089.78
2023-05-23T08:50:12.519Z,99097.16
2023-05-23T08:52:51.628Z,99095.03
2023-05-23T08:55:26.480Z,99101.53
2023-05-23T08:58:00.578Z,99092.09
2023-05-23T09:00:55.658Z,99090.41
2023-05-23T09:03:30.082Z,99087.13
2023-05-23T09:06:15.972Z,99090.78
2023-05-23T09:08:49.535Z,99097.91
2023-05-23T09:11:25.997Z,99093.16
2023-05-23T09:13:59.100Z,99098.31
2023-05-23T09:16:35.867Z,99097.81
2023-05-23T09:19:16.210Z,99103.38
2023-05-23T09:21:56.662Z,99098.38
2023-05-23T09:24:38.383Z,99095.56
2023-05-23T09:27:14.214Z,99106.19
2023-05-23T09:29:47.845Z,99097.75
2023-05-23T09:32:23.107Z,99097.56
2023-05-23T09:35:02.534Z,99095.94
2023-05-23T09:37:39.363Z,99098.59
2023-05-23T09:40:14.202Z,99098.91
2023-05-23T09:43:04.027Z,99098.63
2023-05-23T09:45:37.083Z,99089.81
2023-05-23T09:48:14.996Z,99091.81
2023-05-23T09:50:51.506Z,99107.06
2023-05-23T09:53:26.285Z,99092.47
2023-05-23T09:56:00.850Z,99106.25
2023-05-23T09:58:36.808Z,99107.06
2023-05-23T10:01:13.005Z,99110.19
2023-05-23T10:03:51.125Z,99113.53
2023-05-23T10:06:27.913Z,99115.03
2023-05-23T10:09:09.410Z,99103.03
2023-05-23T10:12:22.336Z,99102.88
2023-05-23T10:14:58.628Z,99106.56
2023-05-23T10:17:39.004Z,99111.84
2023-05-23T10:20:17.540Z,99111.31
2023-05-23T10:22:51.241Z,99110.03
2023-05-23T10:25:24.467Z,99108.25
2023-05-23T10:28:02.391Z,99112.91
2023-05-23T10:30:36.445Z,99116.69
2023-05-23T10:33:10.137Z,99119.13
2023-05-23T10:35:57.669Z,99115.22
2023-05-23T10:38:37.970Z,99117.13
2023-05-23T10:41:27.294Z,99118.41
2023-05-23T10:44:19.043Z,99121.34
2023-05-23T10:46:53.844Z,99126.19
2023-05-23T10:49:40.000Z,99119.97
2023-05-23T10:52:17.955Z,99127.34
2023-05-23T10:54:53.870Z,99129.84
2023-05-23T10:57:28.737Z,99121.97
2023-05-23T11:00:01.853Z,99125.31
2023-05-23T11:02:35.028Z,99131.41
2023-05-23T11:05:22.317Z,99124.72
2023-05-23T11:08:10.188Z,99126.69
2023-05-23T11:10:57.301Z,99129.94
2023-05-23T11:14:00.241Z,99128.78
2023-05-23T11:16:43.099Z,99140.47
2023-05-23T11:19:25.615Z,99143.38
2023-05-23T11:22:01.332Z,99137.84
2023-05-23T11:24:52.516Z,99135.19
2023-05-23T11:27:29.766Z,99139.25
2023-05-23T11:30:06.257Z,99137.41
2023-05-23T11:32:39.153Z,99139.72
2023-05-23T11:35:12.582Z,99143.31
2023-05-23T11:37:45.995Z,99133.88
2023-05-23T11:40:28.824Z,99133.16
2023-05-23T11:43:03.349Z,99141.56
2023-05-23T11:45:37.503Z,99144.09
2023-05-23T11:48:12.153Z,99138.88
2023-05-23T11:50:47.219Z,99145.47
2023-05-23T11:53:21.969Z,99141.19
2023-05-23T11:55:58.585Z,99143.16
2023-05-23T11:58:32.805Z,99147.50
2023-05-23T12:01:07.669Z,99143.88
2023-05-23T12:03:47.844Z,99155.31
2023-05-23T12:06:21.378Z,99150.91
2023-05-23T12:08:54.602Z,99143.31
2023-05-23T12:11:32.622Z,99150.75
2023-05-23T12:14:06.664Z,99147.69
2023-05-23T12:16:39.882Z,99146.38
2023-05-23T12:19:13.271Z,99147.09
2023-05-23T12:21:47.660Z,99153.38
2023-05-23T12:24:22.350Z,99139.53
2023-05-23T12:26:59.707Z,99146.88
2023-05-23T12:29:34.953Z,99149.88
2023-05-23T12:32:08.591Z,99151.31
2023-05-23T12:34:43.523Z,99155.03
2023-05-23T12:37:20.100Z,99149.75
2023-05-23T12:39:53.712Z,99150.16
2023-05-23T12:42:30.511Z,99158.94
2023-05-23T12:45:04.445Z,99150.63
2023-05-23T12:47:37.416Z,99151.81
2023-05-23T12:50:11.469Z,99149.44
2023-05-23T12:52:45.033Z,99148.66
2023-05-23T12:55:18.200Z,99147.16
2023-05-23T12:57:52.689Z,99151.22
2023-05-23T13:00:25.802Z,99149.41
2023-05-23T13:02:58.927Z,99152.31
2023-05-23T13:05:32.065Z,99141.44
2023-05-23T13:08:05.585Z,99145.91
2023-05-23T13:10:41.389Z,99136.31
2023-05-23T13:13:15.834Z,99148.84
2023-05-23T13:15:50.957Z,99144.44
2023-05-23T13:18:25.705Z,99136.75
2023-05-23T13:20:58.985Z,99141.94
2023-05-23T13:23:32.509Z,99150.91
2023-05-23T13:26:06.764Z,99151.28
2023-05-23T13:28:41.289Z,99151.97
2023-05-23T13:31:14.557Z,99152.16
2023-05-23T13:33:47.566Z,99146.84
2023-05-23T13:36:20.526Z,99147.53
2023-05-23T13:38:53.618Z,99146.25
2023-05-23T13:41:27.608Z,99147.44
2023-05-23T13:44:02.230Z,99143.44
2023-05-23T13:46:35.710Z,99146.66
2023-05-23T13:49:08.806Z,99150.75
2023-05-23T13:51:43.381Z,99150.25
2023-05-23T13:54:16.390Z,99163.44
2023-05-23T13:56:49.524Z,99172.44
2023-05-23T13:59:24.061Z,99157.31
2023-05-23T14:01:57.497Z,99162.66
2023-05-23T14:04:30.778Z,99170.47
2023-05-23T14:07:04.330Z,99170.84
2023-05-23T14:09:37.651Z,99172.28
2023-05-23T14:12:10.983Z,99172.97
2023-05-23T14:14:45.535Z,99168.28
2023-05-23T14:17:18.708Z,99166.16
2023-05-23T14:19:52.141Z,99171.34
2023-05-23T14:22:25.436Z,99181.66
2023-05-23T14:24:58.993Z,99186.38
2023-05-23T14:27:33.688Z,99183.53
2023-05-23T14:30:09.754Z,99192.25
2023-05-23T14:32:42.941Z,99183.50
2023-05-23T14:35:16.119Z,99183.84
2023-05-23T14:37:49.458Z,99181.88
2023-05-23T14:40:22.482Z,99182.03
2023-05-23T14:42:55.435Z,99184.75
2023-05-23T14:45:30.207Z,99192.41
2023-05-23T14:48:03.282Z,99185.16
2023-05-23T14:50:36.536Z,99180.03
2023-05-23T14:53:09.564Z,99175.28
2023-05-23T14:55:42.728Z,99179.59
2023-05-23T14:58:15.860Z,99189.75
2023-05-23T15:00:50.297Z,99193.88
2023-05-23T15:03:23.742Z,99189.94
2023-05-23T15:05:56.783Z,99181.63
2023-05-23T15:08:30.533Z,99194.91
2023-05-23T15:11:03.414Z,99190.78
2023-05-23T15:13:36.689Z,99197.00
2023-05-23T15:16:11.067Z,99200.75
2023-05-23T15:18:44.000Z,99192.63
2023-05-23T15:21:16.983Z,99195.19
2023-05-23T15:23:49.868Z,99199.59
2023-05-23T15:26:23.867Z,99197.22
2023-05-23T15:28:56.838Z,99194.13
2023-05-23T15:31:33.671Z,99200.38
2023-05-23T15:34:07.053Z,99201.38
2023-05-23T15:36:41.274Z,99189.09
2023-05-23T15:39:14.303Z,99193.41
2023-05-23T15:41:47.412Z,99195.03
2023-05-23T15:44:21.936Z,99199.41
2023-05-23T15:46:56.592Z,99181.88
2023-05-23T15:49:30.071Z,99185.56
2023-05-23T15:52:02.921Z,99199.00
2023-05-23T15:54:35.726Z,99193.22
2023-05-23T15:57:08.627Z,99203.72
2023-05-23T15:59:42.096Z,99213.19
2023-05-23T16:02:18.930Z,99204.19
2023-05-23T16:04:51.815Z,99208.97
2023-05-23T16:07:24.748Z,99213.97
2023-05-23T16:09:57.529Z,99205.34
2023-05-23T16:12:31.135Z,99214.28
2023-05-23T16:15:04.658Z,99216.88
2023-05-23T16:17:38.902Z,99215.56
2023-05-23T16:20:12.628Z,99216.84
2023-05-23T16:22:45.986Z,99224.34
2023-05-23T16:25:19.263Z,99216.38
2023-05-23T16:27:52.215Z,99217.91
2023-05-23T16:30:27.828Z,99221.72
2023-05-23T16:33:02.097Z,99228.31
2023-05-23T16:35:35.168Z,99223.00
2023-05-23T16:38:08.256Z,99220.25
2023-05-23T16:40:41.582Z,99228.69
2023-05-23T16:43:14.934Z,99225.53
2023-05-23T16:45:48.117Z,99223.34
2023-05-23T16:48:22.824Z,99220.63
2023-05-23T16:50:56.306Z,99226.16
2023-05-23T16:53:29.286Z,99226.63
2023-05-23T16:56:02.221Z,99224.44
2023-05-23T16:58:38.408Z,99224.13
2023-05-23T17:01:11.495Z,99229.59
2023-05-23T17:03:49.198Z,99227.91
2023-05-23T17:06:22.493Z,99230.59
2023-05-23T17:08:55.500Z,99229.00
2023-05-23T17:11:28.530Z,99227.91
2023-05-23T17:14:02.073Z,99224.31
2023-05-23T17:16:35.200Z,99238.59
2023-05-23T17:19:09.729Z,99238.13
2023-05-23T17:21:42.650Z,99241.13
2023-05-23T17:24:16.054Z,99238.75
2023-05-23T17:26:49.015Z,99238.63
2023-05-23T17:29:22.150Z,99245.81
2023-05-23T17:31:54.999Z,99240.63
2023-05-23T17:34:29.205Z,99241.88
2023-05-23T17:37:02.064Z,99250.03
2023-05-23T17:39:34.941Z,99254.75
2023-05-23T17:42:07.810Z,99251.91
2023-05-23T17:44:40.688Z,99253.63
2023-05-23T17:47:13.805Z,99257.56
2023-05-23T17:49:47.985Z,99263.34
2023-05-23T17:52:20.883Z,99260.06
2023-05-23T17:54:53.767Z,99270.56
2023-05-23T17:57:26.784Z,99272.91
2023-05-23T18:00:00.214Z,99276.69
2023-05-23T18:02:33.059Z,99279.47
2023-05-23T18:05:09.343Z,99279.28
2023-05-23T18:07:42.174Z,99281.94
2023-05-23T18:10:15.167Z,99283.44
2023-05-23T18:12:47.977Z,99289.28
2023-05-23T18:15:26.979Z,99292.16
2023-05-23T18:18:00.259Z,99289.56
2023-05-23T18:20:36.193Z,99292.06
2023-05-23T18:23:10.940Z,99298.22
2023-05-23T18:25:43.975Z,99292.59
2023-05-23T18:28:17.059Z,99299.44
2023-05-23T18:30:50.168Z,99304.63
2023-05-23T18:33:23.349Z,99297.75
2023-05-23T18:35:58.482Z,99297.81
2023-05-23T18:38:31.639Z,99312.50
2023-05-23T18:41:06.568Z,99311.38
2023-05-23T18:43:39.663Z,99309.03
2023-05-23T18:46:12.938Z,99309.84
2023-05-23T18:48:46.902Z,99311.47
2023-05-23T18:51:21.081Z,99316.06
2023-05-23T18:53:53.904Z,99316.44
2023-05-23T18:56:26.994Z,99320.06
2023-05-23T18:59:00.034Z,99320.09
2023-05-23T19:01:32.953Z,99316.00
2023-05-23T19:04:06.057Z,99329.16
2023-05-23T19:06:40.384Z,99338.72
2023-05-23T19:09:13.308Z,99332.16
2023-05-23T19:11:46.230Z,99346.22
2023-05-23T19:14:19.156Z,99348.63
2023-05-23T19:16:52.206Z,99352.31
2023-05-23T19:19:25.263Z,99361.13
2023-05-23T19:22:00.724Z,99365.72
2023-05-23T19:24:33.787Z,99372.63
2023-05-23T19:27:06.860Z,99365.19
2023-05-23T19:29:39.722Z,99370.47
2023-05-23T19:32:12.718Z,99367.81
2023-05-23T19:34:45.690Z,99375.06
2023-05-23T19:37:19.950Z,99371.84
2023-05-23T19:39:52.874Z,99384.81
2023-05-23T19:42:25.825Z,99389.84
2023-05-23T19:44:58.677Z,99390.38
2023-05-23T19:47:32.454Z,99390.84
2023-05-23T19:50:05.937Z,99388.94
2023-05-23T19:52:41.068Z,99387.34
2023-05-23T19:55:14.431Z,99391.00
2023-05-23T19:57:47.452Z,99392.78
2023-05-23T20:00:20.652Z,99388.75
2023-05-23T20:02:53.744Z,99395.72
2023-05-23T20:05:26.595Z,99394.25
2023-05-23T20:08:01.437Z,99387.94
2023-05-23T20:10:34.404Z,99398.63
2023-05-23T20:13:07.600Z,99410.91
2023-05-23T20:15:40.828Z,99416.53
2023-05-23T20:18:13.807Z,99419.09
2023-05-23T20:20:46.770Z,99427.06
2023-05-23T20:23:21.112Z,99426.84
2023-05-23T20:25:53.992Z,99426.41
2023-05-23T20:28:27.558Z,99431.34
2023-05-23T20:31:00.686Z,99436.88
2023-05-23T20:33:34.337Z,99437.75
2023-05-23T20:36:07.705Z,99434.84
2023-05-23T20:38:42.341Z,99444.06
2023-05-23T20:41:15.270Z,99446.72
2023-05-23T20:43:48.262Z,99445.84
2023-05-23T20:46:21.301Z,99454.22
2023-05-23T20:48:54.192Z,99455.06
2023-05-23T20:51:27.109Z,99448.91
2023-05-23T20:54:01.358Z,99448.25
2023-05-23T20:56:34.779Z,99452.47
2023-05-23T20:59:08.270Z,99455.19
2023-05-23T21:01:41.207Z,99456.84
2023-05-23T21:04:14.038Z,99461.75
2023-05-23T21:06:47.115Z,99455.28
2023-05-23T21:09:21.351Z,99466.84
2023-05-23T21:11:54.175Z,99469.94
2023-05-23T21:14:27.000Z,99475.59
2023-05-23T21:17:00.240Z,99475.13
2023-05-23T21:19:33.164Z,99474.25
2023-05-23T21:22:06.290Z,99468.16
2023-05-23T21:24:40.488Z,99475.88
2023-05-23T21:27:13.565Z,99462.97
2023-05-23T21:29:47.208Z,99463.13
2023-05-23T21:32:20.561Z,99460.44
2023-05-23T21:34:53.561Z,99460.38
2023-05-23T21:37:26.437Z,99461.41
2023-05-23T21:40:00.650Z,99457.97
2023-05-23T21:42:33.601Z,99454.16
2023-05-23T21:45:07.518Z,99454.34
2023-05-23T21:47:40.441Z,99455.38
2023-05-23T21:50:13.332Z,99465.63
2023-05-23T21:52:46.287Z,99461.56
2023-05-23T21:55:21.178Z,99471.72
2023-05-23T21:57:53.977Z,99471.00
2023-05-23T22:00:27.388Z,99470.75
2023-05-23T22:03:00.289Z,99467.22
2023-05-23T22:05:33.150Z,99478.72
2023-05-23T22:08:06.308Z,99481.34
2023-05-23T22:10:41.535Z,99481.06
2023-05-23T22:13:14.576Z,99471.75
2023-05-23T22:15:47.366Z,99480.06
2023-05-23T22:18:20.245Z,99479.72
2023-05-23T22:20:53.786Z,99477.22
2023-05-23T22:23:26.722Z,99484.09
2023-05-23T22:26:01.244Z,99482.47
2023-05-23T22:28:35.428Z,99482.03
2023-05-23T22:31:09.817Z,99482.88
2023-05-23T22:33:44.656Z,99476.34
2023-05-23T22:36:17.674Z,99479.38
2023-05-23T22:38:50.786Z,99474.56
2023-05-23T22:41:25.220Z,99484.75
2023-05-23T22:43:58.272Z,99494.00
2023-05-23T22:46:31.152Z,99488.50
2023-05-23T22:49:04.209Z,99495.81
2023-05-23T22:51:37.153Z,99494.22
2023-05-23T22:54:10.172Z,99489.13
2023-05-23T22:56:44.480Z,99489.31
2023-05-23T22:59:17.469Z,99489.28
2023-05-23T23:01:51.391Z,99489.13
2023-05-23T23:04:25.508Z,99492.41
2023-05-23T23:06:59.229Z,99484.38
2023-05-23T23:09:32.129Z,99484.38
2023-05-23T23:12:07.053Z,99483.59
2023-05-23T23:14:39.930Z,99483.72
2023-05-23T23:17:13.580Z,99487.38
2023-05-23T23:19:46.920Z,99488.94
2023-05-23T23:22:19.796Z,99496.16
2023-05-23T23:24:53.603Z,99500.59
2023-05-23T23:27:30.845Z,99495.13
2023-05-23T23:30:04.142Z,99490.38
2023-05-23T23:32:37.104Z,99489.59
2023-05-23T23:35:10.253Z,99501.03
2023-05-23T23:37:43.367Z,99500.78
2023-05-23T23:40:16.327Z,99492.66
2023-05-23T23:42:50.509Z,99483.91
2023-05-23T23:45:23.398Z,99487.53
2023-05-23T23:47:56.492Z,99490.44
2023-05-23T23:50:31.378Z,99488.81
2023-05-23T23:53:04.602Z,99488.34
2023-05-23T23:55:37.751Z,99486.19
2023-05-23T23:58:11.896Z,99480.22
